sensor_id;sensor_type;location;lat;lon;timestamp;pressure;altitude;pressure_sealevel;temperature;humidity
8894;BME280;4483;48.622;9.230;2023-01-31T02:05:39;98810.97;;;1.94;100.00
8894;BME280;4483;48.622;9.230;2023-01-31T02:08:07;98813.50;;;1.93;100.00
8894;BME280;4483;48.622;9.230;2023-01-31T02:10:40;98813.53;;;1.96;100.00
8894;BME280;4483;48.622;9.230;2023-01-31T02:13:07;98812.69;;;1.94;100.00
8894;BME280;4483;48.622;9.230;2023-01-31T02:15:34;98792.16;;;1.76;100.00
8894;BME280;4483;48.622;9.230;2023-01-31T02:18:01;98822.84;;;1.94;100.00
8894;BME280;4483;48.622;9.230;2023-01-31T02:24:20;98811.78;;;1.90;100.00
8894;BME280;4483;48.622;9.230;2023-01-31T02:27:22;98815.19;;;1.91;100.00
8894;BME280;4483;48.622;9.230;2023-01-31T02:33:04;98821.09;;;1.90;100.00
8894;BME280;4483;48.622;9.230;2023-01-31T02:35:42;98806.66;;;1.86;100.00
8894;BME280;4483;48.622;9.230;2023-01-31T02:38:20;98815.16;;;1.89;100.00
8894;BME280;4483;48.622;9.230;2023-01-31T02:40:53;98816.91;;;1.92;100.00
8894;BME280;4483;48.622;9.230;2023-01-31T02:43:31;98803.34;;;1.91;100.00
8894;BME280;4483;48.622;9.230;2023-01-31T02:46:23;98807.53;;;1.89;100.00
8894;BME280;4483;48.622;9.230;2023-01-31T02:48:55;98799.91;;;1.86;100.00
8894;BME280;4483;48.622;9.230;2023-01-31T02:51:26;98815.94;;;1.81;100.00
8894;BME280;4483;48.622;9.230;2023-01-31T02:54:00;98823.59;;;1.84;100.00
8894;BME280;4483;48.622;9.230;2023-01-31T02:56:31;98825.25;;;1.79;100.00
8894;BME280;4483;48.622;9.230;2023-01-31T02:59:01;98820.16;;;1.79;100.00
8894;BME280;4483;48.622;9.230;2023-01-31T03:01:31;98828.59;;;1.75;100.00
8894;BME280;4483;48.622;9.230;2023-01-31T03:04:02;98822.63;;;1.74;100.00
8894;BME280;4483;48.622;9.230;2023-01-31T03:06:56;98836.22;;;1.76;100.00
8894;BME280;4483;48.622;9.230;2023-01-31T03:09:43;98833.66;;;1.76;100.00
8894;BME280;4483;48.622;9.230;2023-01-31T03:12:35;98841.34;;;1.79;100.00
8894;BME280;4483;48.622;9.230;2023-01-31T03:15:25;98835.44;;;1.83;100.00
8894;BME280;4483;48.622;9.230;2023-01-31T03:18:20;98825.34;;;1.91;100.00
8894;BME280;4483;48.622;9.230;2023-01-31T03:20:52;98824.47;;;1.86;100.00
8894;BME280;4483;48.622;9.230;2023-01-31T03:23:23;98826.97;;;1.83;100.00
8894;BME280;4483;48.622;9.230;2023-01-31T03:25:55;98832.88;;;1.82;100.00
8894;BME280;4483;48.622;9.230;2023-01-31T03:28:26;98830.38;;;1.85;100.00
8894;BME280;4483;48.622;9.230;2023-01-31T03:31:00;98835.41;;;1.82;100.00
8894;BME280;4483;48.622;9.230;2023-01-31T03:33:33;98828.63;;;1.79;100.00
8894;BME280;4483;48.622;9.230;2023-01-31T03:36:06;98826.91;;;1.77;100.00
8894;BME280;4483;48.622;9.230;2023-01-31T03:38:40;98848.09;;;1.79;100.00
8894;BME280;4483;48.622;9.230;2023-01-31T03:41:14;98848.09;;;1.77;100.00
8894;BME280;4483;48.622;9.230;2023-01-31T03:43:52;98853.19;;;1.77;100.00
8894;BME280;4483;48.622;9.230;2023-01-31T03:46:26;98861.63;;;1.76;100.00
8894;BME280;4483;48.622;9.230;2023-01-31T03:48:57;98865.84;;;1.76;100.00
8894;BME280;4483;48.622;9.230;2023-01-31T03:51:30;98865.03;;;1.77;100.00
8894;BME280;4483;48.622;9.230;2023-01-31T03:54:02;98855.69;;;1.76;100.00
8894;BME280;4483;48.622;9.230;2023-01-31T03:56:34;98847.22;;;1.74;100.00
8894;BME280;4483;48.622;9.230;2023-01-31T03:59:06;98848.88;;;1.72;100.00
8894;BME280;4483;48.622;9.230;2023-01-31T04:01:38;98849.72;;;1.71;100.00
8894;BME280;4483;48.622;9.230;2023-01-31T04:04:08;98847.94;;;1.64;100.00
8894;BME280;4483;48.622;9.230;2023-01-31T04:06:37;98855.59;;;1.67;100.00
8894;BME280;4483;48.622;9.230;2023-01-31T04:09:04;98857.25;;;1.63;100.00
8894;BME280;4483;48.622;9.230;2023-01-31T04:11:35;98854.63;;;1.56;100.00
8894;BME280;4483;48.622;9.230;2023-01-31T04:14:02;98862.28;;;1.59;100.00
8894;BME280;4483;48.622;9.230;2023-01-31T04:16:28;98865.63;;;1.55;100.00
8894;BME280;4483;48.622;9.230;2023-01-31T04:18:55;98878.31;;;1.53;100.00
8894;BME280;4483;48.622;9.230;2023-01-31T04:21:22;98879.13;;;1.51;100.00
8894;BME280;4483;48.622;9.230;2023-01-31T04:23:50;98882.50;;;1.50;100.00
8894;BME280;4483;48.622;9.230;2023-01-31T04:26:16;98882.50;;;1.50;100.00
8894;BME280;4483;48.622;9.230;2023-01-31T04:28:43;98882.50;;;1.50;100.00
8894;BME280;4483;48.622;9.230;2023-01-31T04:31:10;98879.13;;;1.51;100.00
8894;BME280;4483;48.622;9.230;2023-01-31T04:33:36;98872.34;;;1.50;100.00
8894;BME280;4483;48.622;9.230;2023-01-31T04:36:04;98876.56;;;1.49;100.00
8894;BME280;4483;48.622;9.230;2023-01-31T04:38:30;98879.97;;;1.48;100.00
8894;BME280;4483;48.622;9.230;2023-01-31T04:40:58;98877.38;;;1.47;100.00
8894;BME280;4483;48.622;9.230;2023-01-31T04:43:25;98880.75;;;1.46;100.00
8894;BME280;4483;48.622;9.230;2023-01-31T04:45:51;98870.59;;;1.43;100.00
8894;BME280;4483;48.622;9.230;2023-01-31T04:48:18;98867.19;;;1.44;100.00
8894;BME280;4483;48.622;9.230;2023-01-31T04:50:45;98882.44;;;1.47;100.00
8894;BME280;4483;48.622;9.230;2023-01-31T04:53:11;98887.50;;;1.45;100.00
8894;BME280;4483;48.622;9.230;2023-01-31T04:55:38;98879.91;;;1.47;100.00
8894;BME280;4483;48.622;9.230;2023-01-31T04:58:06;98880.75;;;1.44;100.00
8894;BME280;4483;48.622;9.230;2023-01-31T05:00:33;98887.53;;;1.47;100.00
8894;BME280;4483;48.622;9.230;2023-01-31T05:02:59;98882.41;;;1.42;100.00
8894;BME280;4483;48.622;9.230;2023-01-31T05:05:26;98883.22;;;1.41;100.00
8894;BME280;4483;48.622;9.230;2023-01-31T05:07:52;98883.28;;;1.44;100.00
8894;BME280;4483;48.622;9.230;2023-01-31T05:10:19;98880.72;;;1.43;100.00
8894;BME280;4483;48.622;9.230;2023-01-31T05:12:46;98878.16;;;1.41;100.00
8894;BME280;4483;48.622;9.230;2023-01-31T05:15:14;98884.13;;;1.45;100.00
8894;BME280;4483;48.622;9.230;2023-01-31T05:17:41;98880.72;;;1.43;100.00
8894;BME280;4483;48.622;9.230;2023-01-31T05:20:09;98879.91;;;1.45;100.00
8894;BME280;4483;48.622;9.230;2023-01-31T05:22:36;98881.63;;;1.48;100.00
8894;BME280;4483;48.622;9.230;2023-01-31T05:25:03;98890.88;;;1.43;100.00
8894;BME280;4483;48.622;9.230;2023-01-31T05:27:30;98896.81;;;1.45;100.00
8894;BME280;4483;48.622;9.230;2023-01-31T05:29:56;98887.50;;;1.45;100.00
8894;BME280;4483;48.622;9.230;2023-01-31T05:32:26;98885.00;;;1.47;100.00
8894;BME280;4483;48.622;9.230;2023-01-31T05:34:52;98883.28;;;1.44;100.00
8894;BME280;4483;48.622;9.230;2023-01-31T05:37:19;98883.28;;;1.43;100.00
8894;BME280;4483;48.622;9.230;2023-01-31T05:39:46;98898.50;;;1.43;100.00
8894;BME280;4483;48.622;9.230;2023-01-31T05:42:12;98893.47;;;1.46;100.00
8894;BME280;4483;48.622;9.230;2023-01-31T05:44:39;98890.94;;;1.49;100.00
8894;BME280;4483;48.622;9.230;2023-01-31T05:47:05;98889.25;;;1.49;100.00
8894;BME280;4483;48.622;9.230;2023-01-31T05:49:33;98893.47;;;1.49;100.00
8894;BME280;4483;48.622;9.230;2023-01-31T05:52:00;98889.28;;;1.51;100.00
8894;BME280;4483;48.622;9.230;2023-01-31T05:54:27;98884.19;;;1.51;100.00
8894;BME280;4483;48.622;9.230;2023-01-31T05:56:53;98891.88;;;1.54;100.00
8894;BME280;4483;48.622;9.230;2023-01-31T05:59:20;98892.69;;;1.53;100.00
8894;BME280;4483;48.622;9.230;2023-01-31T06:01:47;98891.03;;;1.55;100.00
8894;BME280;4483;48.622;9.230;2023-01-31T06:04:14;98891.00;;;1.53;100.00
8894;BME280;4483;48.622;9.230;2023-01-31T06:06:42;98892.72;;;1.56;100.00
8894;BME280;4483;48.622;9.230;2023-01-31T06:09:09;98885.03;;;1.50;100.00
8894;BME280;4483;48.622;9.230;2023-01-31T06:11:36;98890.16;;;1.53;100.00
8894;BME280;4483;48.622;9.230;2023-01-31T06:14:02;98891.81;;;1.51;100.00
8894;BME280;4483;48.622;9.230;2023-01-31T06:16:31;98887.50;;;1.45;100.00
8894;BME280;4483;48.622;9.230;2023-01-31T06:18:57;98894.31;;;1.48;100.00
8894;BME280;4483;48.622;9.230;2023-01-31T06:21:24;98887.50;;;1.42;100.00
8894;BME280;4483;48.622;9.230;2023-01-31T06:23:52;98905.28;;;1.45;100.00
8894;BME280;4483;48.622;9.230;2023-01-31T06:26:18;98910.34;;;1.42;100.00
8894;BME280;4483;48.622;9.230;2023-01-31T06:28:45;98910.34;;;1.44;100.00
8894;BME280;4483;48.622;9.230;2023-01-31T06:31:12;98917.09;;;1.42;100.00
8894;BME280;4483;48.622;9.230;2023-01-31T06:33:38;98903.50;;;1.35;100.00
8894;BME280;4483;48.622;9.230;2023-01-31T06:36:06;98910.28;;;1.39;100.00
8894;BME280;4483;48.622;9.230;2023-01-31T06:38:33;98904.38;;;1.37;100.00
8894;BME280;4483;48.622;9.230;2023-01-31T06:41:01;98900.94;;;1.35;100.00
8894;BME280;4483;48.622;9.230;2023-01-31T06:43:27;98904.31;;;1.36;100.00
8894;BME280;4483;48.622;9.230;2023-01-31T06:45:54;98909.38;;;1.33;100.00
8894;BME280;4483;48.622;9.230;2023-01-31T06:48:20;98899.19;;;1.30;100.00
8894;BME280;4483;48.622;9.230;2023-01-31T06:50:47;98900.78;;;1.25;100.00
8894;BME280;4483;48.622;9.230;2023-01-31T06:53:13;98909.22;;;1.21;100.00
8894;BME280;4483;48.622;9.230;2023-01-31T06:55:40;98915.97;;;1.19;100.00
8894;BME280;4483;48.622;9.230;2023-01-31T06:58:08;98919.31;;;1.18;100.00
8894;BME280;4483;48.622;9.230;2023-01-31T07:00:35;98917.63;;;1.17;100.00
8894;BME280;4483;48.622;9.230;2023-01-31T07:03:01;98916.78;;;1.18;100.00
8894;BME280;4483;48.622;9.230;2023-01-31T07:05:28;98910.00;;;1.15;100.00
8894;BME280;4483;48.622;9.230;2023-01-31T07:07:54;98899.75;;;1.09;100.00
8894;BME280;4483;48.622;9.230;2023-01-31T07:10:21;98907.47;;;1.17;100.00
8894;BME280;4483;48.622;9.230;2023-01-31T07:12:48;98900.78;;;1.25;100.00
8894;BME280;4483;48.622;9.230;2023-01-31T07:15:16;98899.22;;;1.33;100.00
8894;BME280;4483;48.622;9.230;2023-01-31T07:17:42;98901.06;;;1.43;100.00
8894;BME280;4483;48.622;9.230;2023-01-31T07:20:10;98897.84;;;1.59;100.00
8894;BME280;4483;48.622;9.230;2023-01-31T07:22:37;98895.59;;;1.83;100.00
8894;BME280;4483;48.622;9.230;2023-01-31T07:25:04;98899.91;;;1.93;100.00
8894;BME280;4483;48.622;9.230;2023-01-31T07:27:31;98901.75;;;2.09;100.00
8894;BME280;4483;48.622;9.230;2023-01-31T07:29:57;98899.50;;;2.39;100.00
8894;BME280;4483;48.622;9.230;2023-01-31T07:32:28;98892.13;;;2.75;100.00
8894;BME280;4483;48.622;9.230;2023-01-31T07:34:55;98889.00;;;3.13;100.00
8894;BME280;4483;48.622;9.230;2023-01-31T07:37:22;98894.25;;;3.47;100.00
8894;BME280;4483;48.622;9.230;2023-01-31T07:39:48;98899.47;;;3.79;100.00
8894;BME280;4483;48.622;9.230;2023-01-31T07:42:15;98898.66;;;4.08;99.61
8894;BME280;4483;48.622;9.230;2023-01-31T07:44:42;98897.00;;;4.38;98.19
8894;BME280;4483;48.622;9.230;2023-01-31T07:47:08;98912.31;;;4.75;96.72
8894;BME280;4483;48.622;9.230;2023-01-31T07:49:36;98910.56;;;5.00;95.88
8894;BME280;4483;48.622;9.230;2023-01-31T07:52:03;98902.84;;;5.26;94.22
8894;BME280;4483;48.622;9.230;2023-01-31T07:54:30;98901.09;;;5.46;94.64
8894;BME280;4483;48.622;9.230;2023-01-31T07:56:56;98903.53;;;5.74;92.11
8894;BME280;4483;48.622;9.230;2023-01-31T07:59:23;98904.25;;;6.05;92.60
8894;BME280;4483;48.622;9.230;2023-01-31T08:01:49;98905.72;;;6.42;92.15
8894;BME280;4483;48.622;9.230;2023-01-31T08:04:33;98902.81;;;6.81;90.54
8894;BME280;4483;48.622;9.230;2023-01-31T08:07:01;98901.69;;;7.14;89.91
8894;BME280;4483;48.622;9.230;2023-01-31T08:09:30;98901.28;;;7.47;86.15
8894;BME280;4483;48.622;9.230;2023-01-31T08:11:56;98911.34;;;7.64;86.23
8894;BME280;4483;48.622;9.230;2023-01-31T08:14:23;98900.03;;;7.81;84.50
8894;BME280;4483;48.622;9.230;2023-01-31T08:16:52;98905.81;;;7.95;83.19
8894;BME280;4483;48.622;9.230;2023-01-31T08:19:19;98896.16;;;8.14;82.43
8894;BME280;4483;48.622;9.230;2023-01-31T08:21:46;98901.06;;;8.32;81.65
8894;BME280;4483;48.622;9.230;2023-01-31T08:24:14;98900.72;;;8.55;81.30
8894;BME280;4483;48.622;9.230;2023-01-31T08:26:41;98893.56;;;8.72;79.87
8894;BME280;4483;48.622;9.230;2023-01-31T08:29:08;98906.88;;;8.96;77.98
8894;BME280;4483;48.622;9.230;2023-01-31T08:31:34;98896.94;;;9.24;78.25
8894;BME280;4483;48.622;9.230;2023-01-31T08:34:01;98893.91;;;9.48;76.63
8894;BME280;4483;48.622;9.230;2023-01-31T08:36:29;98894.97;;;9.79;74.50
8894;BME280;4483;48.622;9.230;2023-01-31T08:38:56;98887.72;;;9.96;73.79
8894;BME280;4483;48.622;9.230;2023-01-31T08:41:26;98896.88;;;10.11;71.11
8894;BME280;4483;48.622;9.230;2023-01-31T08:43:53;98897.59;;;10.18;68.71
8894;BME280;4483;48.622;9.230;2023-01-31T08:46:21;98885.56;;;10.20;70.30
8894;BME280;4483;48.622;9.230;2023-01-31T08:48:48;98887.75;;;10.35;68.61
8894;BME280;4483;48.622;9.230;2023-01-31T08:51:15;98885.81;;;10.44;67.17
8894;BME280;4483;48.622;9.230;2023-01-31T08:53:43;98874.78;;;10.74;66.91
8894;BME280;4483;48.622;9.230;2023-01-31T08:56:11;98877.22;;;11.12;66.20
8894;BME280;4483;48.622;9.230;2023-01-31T08:58:40;98873.59;;;11.50;65.10
8894;BME280;4483;48.622;9.230;2023-01-31T09:01:09;98874.69;;;11.42;62.92
8894;BME280;4483;48.622;9.230;2023-01-31T09:03:36;98874.34;;;11.23;62.37
8894;BME280;4483;48.622;9.230;2023-01-31T09:06:05;98867.88;;;11.39;61.15
8894;BME280;4483;48.622;9.230;2023-01-31T09:08:32;98855.56;;;11.49;59.85
8894;BME280;4483;48.622;9.230;2023-01-31T09:10:59;98864.34;;;11.74;60.07
8894;BME280;4483;48.622;9.230;2023-01-31T09:13:27;98867.19;;;11.65;59.62
8894;BME280;4483;48.622;9.230;2023-01-31T09:16:00;98865.53;;;11.62;59.86
8894;BME280;4483;48.622;9.230;2023-01-31T09:18:27;98864.66;;;11.62;57.31
8894;BME280;4483;48.622;9.230;2023-01-31T09:20:54;98852.78;;;11.26;54.20
8894;BME280;4483;48.622;9.230;2023-01-31T09:23:22;98867.63;;;11.18;54.51
8894;BME280;4483;48.622;9.230;2023-01-31T09:25:52;98871.56;;;11.31;55.89
8894;BME280;4483;48.622;9.230;2023-01-31T09:28:20;98870.69;;;10.99;55.42
8894;BME280;4483;48.622;9.230;2023-01-31T09:30:47;98868.94;;;10.33;56.54
8894;BME280;4483;48.622;9.230;2023-01-31T09:33:15;98876.81;;;9.85;57.59
8894;BME280;4483;48.622;9.230;2023-01-31T09:35:42;98878.56;;;9.85;56.81
8894;BME280;4483;48.622;9.230;2023-01-31T09:38:08;98868.28;;;9.83;57.84
8894;BME280;4483;48.622;9.230;2023-01-31T09:40:38;98864.38;;;10.04;57.60
8894;BME280;4483;48.622;9.230;2023-01-31T09:43:08;98863.66;;;9.99;56.98
8894;BME280;4483;48.622;9.230;2023-01-31T09:45:39;98854.19;;;9.60;56.71
8894;BME280;4483;48.622;9.230;2023-01-31T09:48:16;98869.50;;;9.23;58.04
8894;BME280;4483;48.622;9.230;2023-01-31T09:50:46;98877.69;;;8.97;58.22
8894;BME280;4483;48.622;9.230;2023-01-31T09:53:17;98869.59;;;8.73;59.38
8894;BME280;4483;48.622;9.230;2023-01-31T09:55:52;98869.06;;;8.53;59.48
8894;BME280;4483;48.622;9.230;2023-01-31T09:58:25;98858.59;;;8.63;59.42
8894;BME280;4483;48.622;9.230;2023-01-31T10:01:02;98867.38;;;8.50;59.00
8894;BME280;4483;48.622;9.230;2023-01-31T10:03:47;98869.13;;;8.48;60.27
8894;BME280;4483;48.622;9.230;2023-01-31T10:06:20;98867.72;;;8.29;60.42
8894;BME280;4483;48.622;9.230;2023-01-31T10:08:54;98868.88;;;8.07;61.32
8894;BME280;4483;48.622;9.230;2023-01-31T10:11:28;98864.88;;;7.88;61.52
8894;BME280;4483;48.622;9.230;2023-01-31T10:14:00;98872.66;;;7.80;61.55
8894;BME280;4483;48.622;9.230;2023-01-31T10:16:32;98870.44;;;7.55;62.06
8894;BME280;4483;48.622;9.230;2023-01-31T10:19:05;98869.88;;;7.32;62.67
8894;BME280;4483;48.622;9.230;2023-01-31T10:21:38;98868.31;;;7.17;63.49
8894;BME280;4483;48.622;9.230;2023-01-31T10:24:12;98871.00;;;7.05;64.29
8894;BME280;4483;48.622;9.230;2023-01-31T10:26:42;98872.81;;;6.95;64.46
8894;BME280;4483;48.622;9.230;2023-01-31T10:29:14;98887.31;;;6.96;65.24
8894;BME280;4483;48.622;9.230;2023-01-31T10:31:45;98883.91;;;6.97;65.33
8894;BME280;4483;48.622;9.230;2023-01-31T10:34:20;98881.34;;;6.94;65.61
8894;BME280;4483;48.622;9.230;2023-01-31T10:36:51;98876.31;;;6.88;65.48
8894;BME280;4483;48.622;9.230;2023-01-31T10:39:24;98860.09;;;6.86;65.95
8894;BME280;4483;48.622;9.230;2023-01-31T10:42:05;98853.31;;;6.79;66.23
8894;BME280;4483;48.622;9.230;2023-01-31T10:44:41;98855.06;;;6.77;66.82
8894;BME280;4483;48.622;9.230;2023-01-31T10:47:11;98849.44;;;7.24;66.48
8894;BME280;4483;48.622;9.230;2023-01-31T10:49:40;98847.31;;;8.20;64.97
8894;BME280;4483;48.622;9.230;2023-01-31T10:52:17;98851.25;;;8.92;61.62
8894;BME280;4483;48.622;9.230;2023-01-31T10:55:01;98833.78;;;9.92;62.26
8894;BME280;4483;48.622;9.230;2023-01-31T10:57:30;98835.28;;;10.39;59.67
8894;BME280;4483;48.622;9.230;2023-01-31T10:59:57;98841.50;;;10.97;58.93
8894;BME280;4483;48.622;9.230;2023-01-31T11:02:26;98826.31;;;11.19;57.23
8894;BME280;4483;48.622;9.230;2023-01-31T11:04:56;98827.91;;;10.92;55.06
8894;BME280;4483;48.622;9.230;2023-01-31T11:07:23;98832.41;;;11.17;55.57
8894;BME280;4483;48.622;9.230;2023-01-31T11:09:52;98823.72;;;11.21;53.37
8894;BME280;4483;48.622;9.230;2023-01-31T11:12:20;98825.88;;;11.03;54.29
8894;BME280;4483;48.622;9.230;2023-01-31T11:15:03;98813.09;;;11.00;54.53
8894;BME280;4483;48.622;9.230;2023-01-31T11:17:31;98834.59;;;10.66;55.44
8894;BME280;4483;48.622;9.230;2023-01-31T11:20:00;98815.97;;;10.56;54.00
8894;BME280;4483;48.622;9.230;2023-01-31T11:22:30;98827.38;;;10.46;53.92
8894;BME280;4483;48.622;9.230;2023-01-31T11:25:00;98809.78;;;10.63;53.75
8894;BME280;4483;48.622;9.230;2023-01-31T11:27:35;98812.53;;;10.56;52.66
8894;BME280;4483;48.622;9.230;2023-01-31T11:30:04;98802.47;;;10.11;53.25
8894;BME280;4483;48.622;9.230;2023-01-31T11:32:34;98800.81;;;9.69;53.93
8894;BME280;4483;48.622;9.230;2023-01-31T11:35:05;98818.00;;;9.28;54.85
8894;BME280;4483;48.622;9.230;2023-01-31T11:37:33;98813.50;;;8.94;55.37
8894;BME280;4483;48.622;9.230;2023-01-31T11:40:02;98796.63;;;8.81;55.98
8894;BME280;4483;48.622;9.230;2023-01-31T11:42:29;98796.72;;;8.75;56.89
8894;BME280;4483;48.622;9.230;2023-01-31T11:44:58;98798.56;;;8.69;56.31
8894;BME280;4483;48.622;9.230;2023-01-31T11:47:30;98790.13;;;8.61;56.47
8894;BME280;4483;48.622;9.230;2023-01-31T11:49:59;98786.84;;;8.54;57.08
8894;BME280;4483;48.622;9.230;2023-01-31T11:52:29;98772.47;;;8.43;57.27
8894;BME280;4483;48.622;9.230;2023-01-31T11:54:58;98773.56;;;8.30;57.67
8894;BME280;4483;48.622;9.230;2023-01-31T11:57:28;98772.91;;;8.15;58.42
8894;BME280;4483;48.622;9.230;2023-01-31T11:59:58;98773.16;;;8.02;58.79
8894;BME280;4483;48.622;9.230;2023-01-31T12:02:30;98773.34;;;7.88;59.11
8894;BME280;4483;48.622;9.230;2023-01-31T12:04:58;98774.16;;;7.92;59.93
8894;BME280;4483;48.622;9.230;2023-01-31T12:07:31;98754.75;;;7.76;60.10
8894;BME280;4483;48.622;9.230;2023-01-31T12:10:24;98754.75;;;7.73;59.63
8894;BME280;4483;48.622;9.230;2023-01-31T12:12:51;98760.94;;;7.61;60.30
8894;BME280;4483;48.622;9.230;2023-01-31T12:15:18;98762.72;;;7.56;60.47
8894;BME280;4483;48.622;9.230;2023-01-31T12:17:46;98760.28;;;7.46;60.80
8894;BME280;4483;48.622;9.230;2023-01-31T12:20:22;98769.69;;;7.47;61.84
8894;BME280;4483;48.622;9.230;2023-01-31T12:22:59;98767.19;;;7.42;61.66
8894;BME280;4483;48.622;9.230;2023-01-31T12:25:34;98761.09;;;7.49;62.16
8894;BME280;4483;48.622;9.230;2023-01-31T12:28:14;98759.38;;;7.50;61.97
8894;BME280;4483;48.622;9.230;2023-01-31T12:30:55;98744.09;;;7.42;62.28
8894;BME280;4483;48.622;9.230;2023-01-31T12:33:37;98746.69;;;7.41;62.46
8894;BME280;4483;48.622;9.230;2023-01-31T12:36:22;98746.63;;;7.47;62.64
8894;BME280;4483;48.622;9.230;2023-01-31T12:39:02;98749.19;;;7.47;62.08
8894;BME280;4483;48.622;9.230;2023-01-31T12:41:39;98753.47;;;7.46;62.12
8894;BME280;4483;48.622;9.230;2023-01-31T12:44:23;98736.38;;;7.47;62.13
8894;BME280;4483;48.622;9.230;2023-01-31T12:47:04;98719.88;;;7.63;61.39
8894;BME280;4483;48.622;9.230;2023-01-31T12:49:44;98711.56;;;7.49;60.53
8894;BME280;4483;48.622;9.230;2023-01-31T12:52:20;98711.72;;;7.35;61.21
8894;BME280;4483;48.622;9.230;2023-01-31T12:55:00;98703.31;;;7.26;61.51
8894;BME280;4483;48.622;9.230;2023-01-31T12:57:34;98694.91;;;7.18;61.55
8894;BME280;4483;48.622;9.230;2023-01-31T13:00:15;98685.59;;;7.09;62.00
8894;BME280;4483;48.622;9.230;2023-01-31T13:05:41;98672.09;;;6.99;62.49
8894;BME280;4483;48.622;9.230;2023-01-31T13:08:15;98687.47;;;6.99;62.81
8894;BME280;4483;48.622;9.230;2023-01-31T13:10:46;98686.66;;;6.94;62.51
8894;BME280;4483;48.622;9.230;2023-01-31T13:13:19;98701.28;;;6.85;62.60
8894;BME280;4483;48.622;9.230;2023-01-31T13:15:50;98704.84;;;6.75;62.82
8894;BME280;4483;48.622;9.230;2023-01-31T13:18:19;98693.84;;;6.68;63.67
8894;BME280;4483;48.622;9.230;2023-01-31T13:20:51;98682.75;;;6.68;64.15
8894;BME280;4483;48.622;9.230;2023-01-31T13:23:22;98671.53;;;6.76;63.95
8894;BME280;4483;48.622;9.230;2023-01-31T13:25:58;98683.41;;;6.82;64.00
8894;BME280;4483;48.622;9.230;2023-01-31T13:28:32;98687.66;;;6.84;63.44
8894;BME280;4483;48.622;9.230;2023-01-31T13:31:03;98672.28;;;6.84;63.28
8894;BME280;4483;48.622;9.230;2023-01-31T13:33:34;98675.91;;;6.67;63.95
8894;BME280;4483;48.622;9.230;2023-01-31T13:36:10;98662.38;;;6.56;64.41
8894;BME280;4483;48.622;9.230;2023-01-31T13:38:42;98663.34;;;6.47;64.34
8894;BME280;4483;48.622;9.230;2023-01-31T13:41:17;98668.44;;;6.49;64.95
8894;BME280;4483;48.622;9.230;2023-01-31T13:43:45;98659.13;;;6.43;64.32
8894;BME280;4483;48.622;9.230;2023-01-31T13:46:12;98663.50;;;6.32;65.13
8894;BME280;4483;48.622;9.230;2023-01-31T13:48:46;98666.19;;;6.22;65.84
8894;BME280;4483;48.622;9.230;2023-01-31T13:51:21;98671.44;;;6.09;65.24
8894;BME280;4483;48.622;9.230;2023-01-31T13:53:55;98661.28;;;6.02;66.00
8894;BME280;4483;48.622;9.230;2023-01-31T13:56:27;98664.66;;;6.01;66.69
8894;BME280;4483;48.622;9.230;2023-01-31T13:58:55;98660.41;;;6.03;66.57
8894;BME280;4483;48.622;9.230;2023-01-31T14:01:23;98676.56;;;6.05;66.97
8894;BME280;4483;48.622;9.230;2023-01-31T14:04:20;98677.47;;;6.01;67.05
8894;BME280;4483;48.622;9.230;2023-01-31T14:07:13;98674.84;;;6.07;67.05
8894;BME280;4483;48.622;9.230;2023-01-31T14:09:43;98651.88;;;6.01;67.14
8894;BME280;4483;48.622;9.230;2023-01-31T14:12:34;98677.31;;;6.18;67.41
8894;BME280;4483;48.622;9.230;2023-01-31T14:15:02;98680.72;;;6.18;67.41
8894;BME280;4483;48.622;9.230;2023-01-31T14:17:58;98678.13;;;6.20;67.70
8894;BME280;4483;48.622;9.230;2023-01-31T14:20:27;98700.34;;;6.18;67.73
8894;BME280;4483;48.622;9.230;2023-01-31T14:23:29;98692.66;;;6.18;68.12
8894;BME280;4483;48.622;9.230;2023-01-31T14:25:56;98672.31;;;6.07;67.40
8894;BME280;4483;48.622;9.230;2023-01-31T14:28:24;98673.13;;;6.09;68.40
8894;BME280;4483;48.622;9.230;2023-01-31T14:30:53;98666.38;;;6.03;68.51
8894;BME280;4483;48.622;9.230;2023-01-31T14:33:23;98652.75;;;6.00;68.13
8894;BME280;4483;48.622;9.230;2023-01-31T14:36:19;98646.81;;;5.98;68.08
8894;BME280;4483;48.622;9.230;2023-01-31T14:39:14;98640.94;;;5.87;69.11
8894;BME280;4483;48.622;9.230;2023-01-31T14:42:04;98633.31;;;5.78;68.85
8894;BME280;4483;48.622;9.230;2023-01-31T14:44:45;98669.84;;;5.93;69.11
8894;BME280;4483;48.622;9.230;2023-01-31T14:47:27;98659.66;;;5.90;68.83
8894;BME280;4483;48.622;9.230;2023-01-31T14:50:12;98650.22;;;5.97;68.75
8894;BME280;4483;48.622;9.230;2023-01-31T14:52:53;98644.31;;;5.90;69.56
8894;BME280;4483;48.622;9.230;2023-01-31T14:55:33;98629.78;;;5.94;69.27
8894;BME280;4483;48.622;9.230;2023-01-31T14:58:05;98631.53;;;5.90;69.64
8894;BME280;4483;48.622;9.230;2023-01-31T15:00:47;98626.44;;;5.89;69.74
8894;BME280;4483;48.622;9.230;2023-01-31T15:03:17;98614.56;;;5.83;69.94
8894;BME280;4483;48.622;9.230;2023-01-31T15:05:48;98623.97;;;5.78;70.19
8894;BME280;4483;48.622;9.230;2023-01-31T15:08:36;98612.09;;;5.70;70.34
8894;BME280;4483;48.622;9.230;2023-01-31T15:11:05;98616.41;;;5.63;71.13
8894;BME280;4483;48.622;9.230;2023-01-31T15:13:38;98615.56;;;5.61;70.85
8894;BME280;4483;48.622;9.230;2023-01-31T15:16:14;98601.22;;;5.47;71.17
8894;BME280;4483;48.622;9.230;2023-01-31T15:18:42;98607.97;;;5.54;71.90
8894;BME280;4483;48.622;9.230;2023-01-31T15:21:11;98602.91;;;5.51;72.29
8894;BME280;4483;48.622;9.230;2023-01-31T15:23:44;98600.22;;;5.66;71.43
8894;BME280;4483;48.622;9.230;2023-01-31T15:26:13;98613.03;;;5.60;71.76
8894;BME280;4483;48.622;9.230;2023-01-31T15:28:42;98613.88;;;5.59;71.59
8894;BME280;4483;48.622;9.230;2023-01-31T15:31:17;98619.91;;;5.55;72.57
8894;BME280;4483;48.622;9.230;2023-01-31T15:33:48;98631.03;;;5.46;72.73
8894;BME280;4483;48.622;9.230;2023-01-31T15:36:19;98647.28;;;5.38;72.76
8894;BME280;4483;48.622;9.230;2023-01-31T15:38:51;98659.22;;;5.36;73.16
8894;BME280;4483;48.622;9.230;2023-01-31T15:41:20;98661.78;;;5.36;73.60
8894;BME280;4483;48.622;9.230;2023-01-31T15:43:49;98661.78;;;5.36;73.75
8894;BME280;4483;48.622;9.230;2023-01-31T15:46:27;98666.94;;;5.30;73.32
8894;BME280;4483;48.622;9.230;2023-01-31T15:48:55;98660.13;;;5.26;74.46
8894;BME280;4483;48.622;9.230;2023-01-31T15:51:22;98654.22;;;5.24;73.93
8894;BME280;4483;48.622;9.230;2023-01-31T15:53:59;98655.06;;;5.23;74.65
8894;BME280;4483;48.622;9.230;2023-01-31T15:56:26;98658.47;;;5.23;73.85
8894;BME280;4483;48.622;9.230;2023-01-31T15:58:55;98656.78;;;5.24;74.86
8894;BME280;4483;48.622;9.230;2023-01-31T16:01:26;98663.59;;;5.19;74.55
8894;BME280;4483;48.622;9.230;2023-01-31T16:03:56;98673.88;;;5.13;74.73